createdAt,value
2023-02-09T00:01:31.716Z,39.58
2023-02-09T00:04:00.052Z,41.58
2023-02-09T00:06:30.055Z,39.42
2023-02-09T00:09:01.273Z,40.42
2023-02-09T00:11:49.842Z,40.03
2023-02-09T00:14:21.910Z,41.25
2023-02-09T00:16:50.816Z,39.15
2023-02-09T00:19:21.637Z,42.45
2023-02-09T00:21:49.500Z,39.85
2023-02-09T00:24:16.954Z,37.95
2023-02-09T00:26:47.244Z,38.28
2023-02-09T00:29:14.898Z,41.08
2023-02-09T00:31:42.560Z,39.95
2023-02-09T00:34:10.713Z,40.35
2023-02-09T00:36:37.893Z,39.03
2023-02-09T00:39:05.109Z,43.88
2023-02-09T00:41:51.525Z,44.92
2023-02-09T00:44:18.671Z,40.97
2023-02-09T00:46:45.818Z,46.38
2023-02-09T00:49:13.112Z,39.13
2023-02-09T00:51:42.626Z,41.47
2023-02-09T00:54:10.401Z,43.63
2023-02-09T00:56:37.472Z,43.50
2023-02-09T00:59:04.846Z,41.88
2023-02-09T01:01:32.130Z,41.70
2023-02-09T01:03:59.333Z,40.50
2023-02-09T01:06:26.568Z,36.47
2023-02-09T01:08:54.861Z,42.45
2023-02-09T01:11:27.070Z,39.20
2023-02-09T01:13:58.063Z,38.63
2023-02-09T01:16:28.761Z,42.75
2023-02-09T01:18:56.586Z,38.28
2023-02-09T01:21:26.132Z,39.45
2023-02-09T01:23:53.519Z,40.25
2023-02-09T01:26:20.795Z,38.03
2023-02-09T01:28:55.538Z,37.72
2023-02-09T01:31:26.663Z,39.83
2023-02-09T01:33:56.293Z,38.60
2023-02-09T01:36:26.347Z,40.97
2023-02-09T01:38:58.851Z,38.53
2023-02-09T01:41:26.599Z,38.05
2023-02-09T01:44:11.755Z,36.83
2023-02-09T01:46:39.947Z,41.85
2023-02-09T01:49:09.919Z,38.20
2023-02-09T01:52:08.953Z,39.72
2023-02-09T01:54:46.373Z,37.50
2023-02-09T01:57:25.455Z,39.60
2023-02-09T02:00:03.736Z,38.80
2023-02-09T02:02:31.125Z,38.65
2023-02-09T02:04:58.922Z,37.83
2023-02-09T02:07:47.383Z,36.80
2023-02-09T02:10:15.001Z,37.50
2023-02-09T02:12:42.849Z,36.58
2023-02-09T02:15:10.255Z,35.95
2023-02-09T02:18:43.646Z,41.78
2023-02-09T02:21:31.762Z,34.95
2023-02-09T02:24:24.893Z,36.38
2023-02-09T02:27:32.483Z,36.38
2023-02-09T02:30:19.944Z,38.95
2023-02-09T02:33:12.071Z,38.10
2023-02-09T02:36:11.238Z,36.75
2023-02-09T02:39:11.188Z,38.47
2023-02-09T02:42:16.511Z,35.25
2023-02-09T02:44:56.532Z,35.80
2023-02-09T02:47:27.239Z,34.42
2023-02-09T02:50:02.092Z,37.97
2023-02-09T02:52:29.579Z,36.33
2023-02-09T02:55:15.266Z,40.50
2023-02-09T02:57:50.972Z,37.05
2023-02-09T03:00:30.699Z,36.83
2023-02-09T03:03:05.810Z,35.83
2023-02-09T03:05:39.110Z,35.58
2023-02-09T03:08:06.650Z,36.00
2023-02-09T03:10:38.375Z,38.35
2023-02-09T03:13:29.274Z,37.50
2023-02-09T03:16:13.250Z,36.13
2023-02-09T03:19:04.805Z,38.75
2023-02-09T03:21:45.407Z,37.13
2023-02-09T03:24:41.748Z,39.67
2023-02-09T03:27:35.460Z,38.13
2023-02-09T03:30:04.922Z,38.05
2023-02-09T03:32:36.559Z,40.15
2023-02-09T03:35:05.297Z,37.08
2023-02-09T03:37:32.470Z,36.42
2023-02-09T03:39:59.689Z,37.72
2023-02-09T03:42:26.994Z,37.88
2023-02-09T03:44:54.211Z,35.70
2023-02-09T03:47:21.375Z,36.08
2023-02-09T03:49:48.537Z,32.75
2023-02-09T03:52:17.540Z,37.00
2023-02-09T03:54:45.073Z,37.03
2023-02-09T03:57:12.324Z,35.50
2023-02-09T03:59:39.939Z,36.25
2023-02-09T04:02:10.746Z,36.75
2023-02-09T04:04:38.560Z,36.75
2023-02-09T04:07:08.130Z,35.40
2023-02-09T04:09:37.622Z,37.58
2023-02-09T04:12:05.393Z,34.42
2023-02-09T04:14:35.069Z,35.50
2023-02-09T04:17:05.370Z,38.17
2023-02-09T04:19:32.572Z,40.67
2023-02-09T04:22:01.267Z,38.38
2023-02-09T04:24:31.946Z,37.83
2023-02-09T04:26:59.235Z,39.40
2023-02-09T04:29:26.808Z,37.13
2023-02-09T04:31:54.119Z,38.80
2023-02-09T04:34:23.025Z,41.83
2023-02-09T04:36:51.229Z,39.20
2023-02-09T04:39:18.639Z,41.33
2023-02-09T04:41:45.914Z,39.30
2023-02-09T04:44:13.368Z,40.13
2023-02-09T04:46:40.630Z,40.60
2023-02-09T04:49:07.804Z,38.95
2023-02-09T04:51:34.982Z,38.70
2023-02-09T04:54:02.267Z,38.83
2023-02-09T04:56:31.459Z,39.55
2023-02-09T04:59:19.822Z,38.80
2023-02-09T05:01:47.122Z,39.58
2023-02-09T05:04:14.361Z,39.15
2023-02-09T05:06:44.044Z,39.45
2023-02-09T05:09:11.320Z,39.88
2023-02-09T05:11:38.444Z,43.78
2023-02-09T05:14:05.690Z,47.22
2023-02-09T05:16:32.906Z,42.75
2023-02-09T05:19:00.093Z,42.38
2023-02-09T05:21:27.309Z,41.88
2023-02-09T05:23:54.446Z,46.58
2023-02-09T05:26:21.595Z,41.85
2023-02-09T05:28:48.863Z,44.90
2023-02-09T05:31:19.104Z,49.55
2023-02-09T05:33:46.462Z,63.47
2023-02-09T05:36:14.869Z,60.33
2023-02-09T05:38:42.087Z,46.30
2023-02-09T05:41:32.511Z,52.60
2023-02-09T05:44:02.103Z,56.15
2023-02-09T05:46:29.294Z,53.13
2023-02-09T05:48:56.520Z,59.35
2023-02-09T05:51:23.732Z,110.90
2023-02-09T05:53:54.024Z,111.50
2023-02-09T05:56:22.706Z,112.68
2023-02-09T05:58:49.848Z,111.53
2023-02-09T06:01:17.131Z,110.22
2023-02-09T06:03:44.694Z,89.60
2023-02-09T06:06:11.931Z,66.80
2023-02-09T06:08:39.415Z,83.20
2023-02-09T06:11:06.718Z,68.97
2023-02-09T06:13:33.960Z,71.25
2023-02-09T06:16:01.339Z,68.43
2023-02-09T06:18:28.569Z,66.22
2023-02-09T06:20:55.790Z,64.35
2023-02-09T06:23:23.046Z,70.40
2023-02-09T06:25:53.242Z,67.95
2023-02-09T06:28:21.155Z,67.25
2023-02-09T06:30:53.468Z,68.13
2023-02-09T06:33:22.925Z,68.00
2023-02-09T06:35:52.280Z,68.90
2023-02-09T06:38:19.982Z,71.93
2023-02-09T06:40:48.059Z,71.45
2023-02-09T06:43:15.952Z,83.53
2023-02-09T06:45:46.071Z,95.80
2023-02-09T06:48:13.664Z,99.90
2023-02-09T06:50:41.112Z,96.63
2023-02-09T06:53:08.320Z,87.00
2023-02-09T06:55:36.094Z,75.13
2023-02-09T06:58:04.085Z,74.63
2023-02-09T07:00:34.310Z,65.55
2023-02-09T07:03:01.730Z,66.75
2023-02-09T07:05:29.237Z,69.25
2023-02-09T07:07:56.943Z,72.65
2023-02-09T07:10:24.313Z,62.70
2023-02-09T07:12:51.725Z,61.20
2023-02-09T07:15:19.193Z,67.00
2023-02-09T07:17:48.356Z,66.50
2023-02-09T07:20:15.593Z,63.45
2023-02-09T07:22:42.867Z,62.08
2023-02-09T07:25:14.988Z,55.25
2023-02-09T07:30:13.365Z,52.70
2023-02-09T07:32:42.281Z,52.38
2023-02-09T07:35:09.391Z,51.35
2023-02-09T07:37:38.799Z,50.58
2023-02-09T07:40:07.534Z,50.75
2023-02-09T07:42:34.751Z,46.28
2023-02-09T07:45:01.896Z,50.35
2023-02-09T07:47:29.163Z,47.33
2023-02-09T07:49:56.343Z,48.78
2023-02-09T07:52:23.470Z,49.60
2023-02-09T07:54:51.920Z,47.95
2023-02-09T07:57:19.172Z,46.78
2023-02-09T07:59:46.478Z,49.42
2023-02-09T08:02:26.677Z,53.10
2023-02-09T08:04:57.611Z,51.30
2023-02-09T08:07:26.050Z,49.22
2023-02-09T08:09:53.257Z,47.80
2023-02-09T08:12:44.794Z,49.55
2023-02-09T08:15:15.408Z,48.33
2023-02-09T08:17:45.175Z,47.17
2023-02-09T08:20:22.123Z,47.25
2023-02-09T08:22:54.761Z,51.05
2023-02-09T08:25:25.580Z,51.72
2023-02-09T08:27:53.829Z,49.08
2023-02-09T08:30:21.213Z,48.05
2023-02-09T08:32:50.761Z,50.45
2023-02-09T08:35:18.009Z,48.17
2023-02-09T08:37:45.334Z,46.33
2023-02-09T08:40:14.950Z,46.05
2023-02-09T08:42:42.434Z,44.85
2023-02-09T08:45:10.079Z,45.92
2023-02-09T08:47:38.128Z,42.42
2023-02-09T08:50:08.586Z,44.03
2023-02-09T08:52:38.323Z,42.15
2023-02-09T08:55:05.776Z,45.50
2023-02-09T08:57:43.476Z,42.58
2023-02-09T09:00:12.755Z,43.17
2023-02-09T09:02:40.331Z,40.38
2023-02-09T09:05:07.896Z,39.88
2023-02-09T09:07:37.554Z,41.65
2023-02-09T09:10:08.858Z,40.33
2023-02-09T09:12:36.284Z,39.90
2023-02-09T09:15:04.755Z,40.65
2023-02-09T09:17:32.090Z,42.97
2023-02-09T09:19:59.500Z,39.30
2023-02-09T09:22:29.102Z,40.22
2023-02-09T09:24:56.364Z,41.80
2023-02-09T09:27:25.995Z,42.58
2023-02-09T09:29:57.595Z,40.10
2023-02-09T09:32:25.421Z,40.67
2023-02-09T09:34:58.952Z,39.72
2023-02-09T09:37:27.032Z,39.03
2023-02-09T09:39:54.216Z,41.38
2023-02-09T09:42:33.739Z,38.72
2023-02-09T09:45:01.521Z,37.50
2023-02-09T09:47:42.295Z,37.67
2023-02-09T09:50:33.016Z,38.67
2023-02-09T09:53:33.531Z,39.35
2023-02-09T09:56:09.335Z,40.42
2023-02-09T09:58:42.750Z,39.15
2023-02-09T10:01:15.660Z,40.85
2023-02-09T10:03:43.702Z,37.78
2023-02-09T10:06:22.869Z,37.78
2023-02-09T10:09:12.349Z,37.33
2023-02-09T10:11:48.828Z,36.28
2023-02-09T10:14:16.131Z,35.72
2023-02-09T10:16:45.440Z,35.90
2023-02-09T10:19:29.272Z,35.60
2023-02-09T10:21:58.821Z,35.45
2023-02-09T10:24:33.600Z,33.25
2023-02-09T10:27:31.219Z,34.55
2023-02-09T10:30:28.667Z,37.30
2023-02-09T10:33:00.501Z,35.65
2023-02-09T10:35:41.997Z,33.28
2023-02-09T10:38:19.310Z,32.00
2023-02-09T10:40:50.152Z,31.02
2023-02-09T10:43:24.309Z,32.85
2023-02-09T10:46:01.053Z,31.92
2023-02-09T10:48:39.454Z,31.58
2023-02-09T10:51:15.500Z,32.53
2023-02-09T10:54:04.899Z,33.88
2023-02-09T10:56:49.707Z,37.42
2023-02-09T10:59:23.337Z,38.10
2023-02-09T11:02:01.164Z,36.13
2023-02-09T11:04:40.141Z,33.65
2023-02-09T11:07:14.651Z,33.97
2023-02-09T11:09:47.743Z,35.03
2023-02-09T11:12:15.085Z,35.13
2023-02-09T11:14:46.100Z,32.90
2023-02-09T11:17:22.790Z,34.72
2023-02-09T11:20:04.994Z,33.30
2023-02-09T11:22:50.123Z,32.25
2023-02-09T11:25:45.496Z,32.03
2023-02-09T11:28:33.786Z,33.10
2023-02-09T11:31:00.859Z,32.33
2023-02-09T11:34:08.324Z,33.10
2023-02-09T11:37:04.517Z,35.33
2023-02-09T11:40:02.777Z,36.63
2023-02-09T11:42:45.835Z,38.35
2023-02-09T11:45:35.240Z,33.90
2023-02-09T11:48:23.142Z,34.00
2023-02-09T11:50:59.299Z,33.30
2023-02-09T11:54:16.466Z,34.83
2023-02-09T11:56:50.402Z,35.97
2023-02-09T11:59:36.784Z,34.47
2023-02-09T12:02:23.855Z,34.22
2023-02-09T12:04:55.022Z,35.85
2023-02-09T12:07:54.117Z,36.65
2023-02-09T12:10:29.949Z,37.97
2023-02-09T12:13:39.348Z,42.80
2023-02-09T12:16:21.347Z,37.97
2023-02-09T12:18:48.784Z,39.80
2023-02-09T12:21:33.235Z,34.75
2023-02-09T12:24:01.981Z,34.28
2023-02-09T12:26:43.674Z,34.13
2023-02-09T12:29:41.137Z,34.28
2023-02-09T12:32:08.390Z,37.03
2023-02-09T12:34:39.203Z,32.45
2023-02-09T12:37:16.934Z,31.80
2023-02-09T12:40:07.907Z,29.92
2023-02-09T12:42:55.781Z,28.30
2023-02-09T12:45:43.174Z,31.08
2023-02-09T12:48:10.347Z,29.35
2023-02-09T12:50:43.524Z,29.38
2023-02-09T12:53:26.418Z,26.92
2023-02-09T12:56:11.321Z,24.77
2023-02-09T12:58:44.350Z,26.77
2023-02-09T13:01:14.098Z,25.98
2023-02-09T13:03:49.254Z,24.80
2023-02-09T13:06:49.110Z,26.52
2023-02-09T13:09:39.140Z,24.77
2023-02-09T13:12:15.177Z,25.65
2023-02-09T13:14:50.477Z,25.27
2023-02-09T13:17:36.871Z,24.23
2023-02-09T13:20:30.341Z,21.90
2023-02-09T13:23:16.527Z,24.42
2023-02-09T13:25:44.373Z,23.63
2023-02-09T13:28:26.649Z,22.33
2023-02-09T13:30:54.366Z,19.08
2023-02-09T13:34:03.055Z,21.67
2023-02-09T13:36:32.838Z,21.80
2023-02-09T13:39:00.151Z,22.05
2023-02-09T13:41:40.662Z,22.33
2023-02-09T13:44:30.281Z,22.00
2023-02-09T13:47:00.971Z,22.10
2023-02-09T13:49:30.525Z,22.23
2023-02-09T13:52:17.177Z,23.25
2023-02-09T13:54:44.565Z,22.33
2023-02-09T13:57:32.360Z,23.60
2023-02-09T14:00:27.237Z,24.65
2023-02-09T14:03:03.710Z,27.10
2023-02-09T14:05:41.561Z,25.85
2023-02-09T14:08:11.382Z,27.77
2023-02-09T14:10:44.923Z,29.13
2023-02-09T14:13:26.783Z,29.25
2023-02-09T14:16:09.191Z,28.40
2023-02-09T14:21:40.495Z,25.10
2023-02-09T14:24:27.935Z,20.38
2023-02-09T14:27:15.827Z,27.20
2023-02-09T14:29:47.771Z,25.65
2023-02-09T14:32:35.401Z,26.60
2023-02-09T14:35:25.386Z,26.98
2023-02-09T14:37:56.082Z,24.70
2023-02-09T14:40:27.977Z,26.52
2023-02-09T14:43:11.083Z,26.58
2023-02-09T14:45:45.578Z,26.13
2023-02-09T14:48:27.586Z,24.55
2023-02-09T14:51:03.257Z,25.10
2023-02-09T14:53:33.105Z,25.55
2023-02-09T14:56:02.706Z,25.17
2023-02-09T14:58:32.410Z,26.33
2023-02-09T15:01:02.872Z,26.85
2023-02-09T15:03:30.219Z,26.40
2023-02-09T15:06:02.941Z,28.30
2023-02-09T15:08:37.027Z,27.65
2023-02-09T15:11:26.428Z,29.35
2023-02-09T15:14:03.984Z,29.08
2023-02-09T15:16:43.181Z,27.92
2023-02-09T15:19:19.536Z,27.88
2023-02-09T15:21:58.730Z,26.08
2023-02-09T15:24:32.718Z,27.10
2023-02-09T15:26:59.833Z,26.35
2023-02-09T15:29:27.304Z,27.55
2023-02-09T15:31:55.347Z,27.38
2023-02-09T15:34:22.497Z,29.27
2023-02-09T15:36:49.727Z,28.60
2023-02-09T15:39:25.238Z,31.48
2023-02-09T15:42:11.193Z,30.08
2023-02-09T15:44:57.115Z,30.40
2023-02-09T15:47:43.073Z,34.75
2023-02-09T15:50:10.357Z,34.85
2023-02-09T15:52:37.773Z,34.25
2023-02-09T15:55:05.702Z,31.80
2023-02-09T15:57:32.980Z,30.40
2023-02-09T16:00:02.770Z,32.67
2023-02-09T16:02:29.959Z,32.22
2023-02-09T16:04:57.054Z,31.60
2023-02-09T16:07:27.299Z,32.72
2023-02-09T16:09:54.479Z,33.05
2023-02-09T16:12:21.539Z,31.55
2023-02-09T16:14:48.613Z,32.13
2023-02-09T16:17:15.820Z,32.72
2023-02-09T16:19:43.902Z,31.75
2023-02-09T16:22:13.704Z,33.03
2023-02-09T16:24:45.834Z,37.88
2023-02-09T16:27:28.371Z,40.22
2023-02-09T16:29:57.885Z,40.03
2023-02-09T16:32:28.838Z,36.78
2023-02-09T16:35:04.534Z,41.08
2023-02-09T16:37:38.436Z,37.25
2023-02-09T16:40:33.346Z,41.42
2023-02-09T16:43:01.903Z,38.28
2023-02-09T16:45:37.217Z,38.45
2023-02-09T16:48:04.919Z,36.25
2023-02-09T16:50:39.997Z,36.92
2023-02-09T16:53:37.124Z,36.80
2023-02-09T16:56:10.337Z,34.67
2023-02-09T16:58:40.121Z,36.03
2023-02-09T17:01:20.891Z,37.28
2023-02-09T17:03:52.316Z,37.22
2023-02-09T17:06:23.580Z,38.70
2023-02-09T17:08:51.320Z,39.13
2023-02-09T17:11:23.654Z,35.95
2023-02-09T17:13:51.273Z,40.20
2023-02-09T17:16:27.482Z,37.95
2023-02-09T17:18:58.934Z,37.03
2023-02-09T17:21:35.310Z,41.05
2023-02-09T17:24:06.804Z,40.45
2023-02-09T17:26:37.750Z,41.28
2023-02-09T17:29:04.877Z,45.53
2023-02-09T17:31:47.025Z,44.40
2023-02-09T17:34:18.274Z,42.58
2023-02-09T17:36:45.387Z,42.55
2023-02-09T17:39:14.054Z,42.47
2023-02-09T17:41:46.601Z,39.88
2023-02-09T17:44:43.640Z,39.92
2023-02-09T17:47:20.695Z,37.83
2023-02-09T17:49:47.929Z,39.35
2023-02-09T17:52:19.960Z,43.17
2023-02-09T17:54:47.821Z,43.08
2023-02-09T17:57:17.155Z,40.42
2023-02-09T17:59:44.301Z,37.75
2023-02-09T18:02:17.949Z,39.33
2023-02-09T18:04:47.990Z,46.22
2023-02-09T18:07:20.519Z,47.20
2023-02-09T18:09:50.484Z,45.97
2023-02-09T18:12:26.559Z,41.97
2023-02-09T18:14:54.202Z,39.40
2023-02-09T18:17:21.250Z,36.03
2023-02-09T18:19:48.364Z,34.05
2023-02-09T18:22:20.174Z,38.05
2023-02-09T18:24:50.135Z,40.65
2023-02-09T18:27:23.124Z,42.10
2023-02-09T18:29:50.650Z,41.75
2023-02-09T18:32:21.143Z,39.50
2023-02-09T18:34:50.988Z,35.00
2023-02-09T18:37:18.179Z,43.38
2023-02-09T18:39:46.917Z,42.42
2023-02-09T18:42:19.367Z,38.95
2023-02-09T18:44:48.912Z,44.83
2023-02-09T18:47:18.524Z,44.80
2023-02-09T18:49:45.689Z,39.60
2023-02-09T18:52:17.162Z,37.17
2023-02-09T18:54:44.578Z,37.00
2023-02-09T18:57:13.272Z,39.00
2023-02-09T18:59:40.881Z,38.88
2023-02-09T19:02:11.232Z,35.97
2023-02-09T19:04:38.631Z,32.40
2023-02-09T19:07:09.454Z,31.25
2023-02-09T19:09:39.212Z,30.60
2023-02-09T19:12:07.163Z,32.40
2023-02-09T19:14:40.548Z,29.75
2023-02-09T19:17:13.461Z,29.63
2023-02-09T19:19:40.879Z,29.70
2023-02-09T19:22:13.588Z,29.63
2023-02-09T19:24:43.206Z,29.80
2023-02-09T19:27:16.978Z,33.15
2023-02-09T19:29:45.512Z,33.78
2023-02-09T19:32:14.962Z,32.10
2023-02-09T19:34:43.245Z,32.03
2023-02-09T19:37:12.395Z,32.33
2023-02-09T19:39:41.596Z,28.52
2023-02-09T19:42:08.983Z,26.50
2023-02-09T19:44:36.478Z,25.20
2023-02-09T19:47:03.601Z,27.23
2023-02-09T19:49:32.829Z,25.40
2023-02-09T19:52:01.365Z,25.55
2023-02-09T19:54:28.473Z,24.80
2023-02-09T19:56:55.610Z,25.92
2023-02-09T19:59:22.790Z,26.50
2023-02-09T20:01:50.248Z,26.15
2023-02-09T20:04:17.412Z,26.80
2023-02-09T20:06:46.933Z,23.95
2023-02-09T20:09:14.119Z,25.85
2023-02-09T20:11:43.730Z,24.77
2023-02-09T20:14:10.935Z,27.13
2023-02-09T20:16:38.567Z,29.17
2023-02-09T20:19:08.128Z,26.15
2023-02-09T20:21:37.547Z,26.95
2023-02-09T20:24:09.567Z,28.67
2023-02-09T20:26:36.860Z,27.98
2023-02-09T20:29:08.250Z,28.83
2023-02-09T20:31:38.187Z,27.85
2023-02-09T20:34:07.799Z,26.23
2023-02-09T20:36:38.525Z,27.10
2023-02-09T20:39:10.125Z,29.25
2023-02-09T20:41:59.694Z,25.48
2023-02-09T20:44:45.671Z,25.38
2023-02-09T20:47:13.020Z,24.63
2023-02-09T20:49:40.698Z,25.58
2023-02-09T20:52:08.973Z,27.05
2023-02-09T20:54:45.200Z,23.80
2023-02-09T20:57:12.483Z,23.88
2023-02-09T20:59:40.040Z,23.30
2023-02-09T21:02:07.331Z,23.20
2023-02-09T21:04:36.664Z,23.88
2023-02-09T21:07:04.550Z,25.27
2023-02-09T21:09:31.697Z,22.50
2023-02-09T21:11:58.868Z,21.85
2023-02-09T21:14:32.246Z,23.48
2023-02-09T21:17:06.395Z,22.10
2023-02-09T21:19:40.030Z,20.90
2023-02-09T21:22:07.808Z,21.95
2023-02-09T21:24:37.046Z,19.90
2023-02-09T21:27:06.854Z,20.17
2023-02-09T21:29:37.875Z,19.92
2023-02-09T21:32:07.499Z,19.58
2023-02-09T21:34:37.722Z,19.25
2023-02-09T21:37:10.251Z,18.75
2023-02-09T21:39:43.318Z,20.85
2023-02-09T21:42:28.853Z,19.50
2023-02-09T21:44:57.175Z,20.98
2023-02-09T21:47:34.894Z,20.00
2023-02-09T21:50:02.331Z,22.02
2023-02-09T21:52:30.130Z,21.45
2023-02-09T21:54:57.755Z,21.13
2023-02-09T21:57:26.143Z,21.25
2023-02-09T21:59:56.194Z,20.45
2023-02-09T22:02:27.498Z,22.27
2023-02-09T22:04:54.801Z,20.23
2023-02-09T22:07:22.125Z,19.98
2023-02-09T22:09:51.516Z,22.17
2023-02-09T22:12:18.777Z,20.60
2023-02-09T22:14:46.091Z,21.75
2023-02-09T22:17:15.673Z,21.20
2023-02-09T22:19:42.835Z,20.88
2023-02-09T22:22:10.737Z,22.27
2023-02-09T22:24:38.208Z,20.08
2023-02-09T22:27:05.389Z,18.60
2023-02-09T22:29:34.966Z,19.92
2023-02-09T22:32:02.496Z,19.10
2023-02-09T22:34:29.679Z,19.20
2023-02-09T22:36:56.771Z,18.77
2023-02-09T22:39:23.969Z,18.10
2023-02-09T22:41:52.415Z,19.73
2023-02-09T22:44:19.663Z,17.25
2023-02-09T22:46:47.047Z,19.23
2023-02-09T22:49:20.613Z,18.90
2023-02-09T22:51:49.440Z,18.73
2023-02-09T22:54:19.973Z,18.50
2023-02-09T22:56:47.293Z,19.08
2023-02-09T22:59:15.862Z,17.90
2023-02-09T23:01:44.165Z,17.75
2023-02-09T23:04:11.905Z,18.98
2023-02-09T23:06:39.361Z,17.45
2023-02-09T23:09:08.176Z,17.73
2023-02-09T23:11:36.608Z,17.38
2023-02-09T23:14:09.988Z,18.58
2023-02-09T23:16:39.988Z,17.83
2023-02-09T23:19:13.086Z,16.88
2023-02-09T23:21:46.323Z,16.15
2023-02-09T23:24:16.795Z,18.70
2023-02-09T23:26:45.039Z,16.70
2023-02-09T23:29:15.487Z,16.92
2023-02-09T23:31:44.154Z,17.67
2023-02-09T23:34:21.158Z,16.85
2023-02-09T23:36:48.842Z,18.35
2023-02-09T23:39:21.284Z,16.00
2023-02-09T23:41:48.739Z,17.63
2023-02-09T23:44:16.007Z,16.88
2023-02-09T23:46:43.247Z,18.38
2023-02-09T23:49:11.639Z,16.27
2023-02-09T23:51:38.779Z,16.98
2023-02-09T23:54:07.632Z,16.73
2023-02-09T23:56:38.223Z,17.30
2023-02-09T23:59:08.382Z,15.50
